Time;durP1;ratioP1;P1;durP2;ratioP2;P2;SDS_P1;SDS_P2;PMS_P1;PMS_P2;Temp;Humidity;BMP_temperature;BMP_pressure;BME280_temperature;BME280_humidity;BME280_pressure;Samples;Min_cycle;Max_cycle;Signal;HPM_P1;HPM_P2
2021/11/28 00:00:44;;;;;;;4.93;3.00;;;3.10;93.60;;;;;;5069857;28;20201;-89
2021/11/28 00:03:12;;;;;;;4.60;2.60;;;3.20;93.50;;;;;;5065451;28;20208;-86
2021/11/28 00:05:57;;;;;;;3.10;2.70;;;3.20;93.50;;;;;;5066938;28;20194;-87
2021/11/28 00:08:50;;;;;;;5.00;2.80;;;3.20;93.40;;;;;;5058479;28;20194;-85
2021/11/28 00:11:23;;;;;;;5.03;3.40;;;3.30;93.10;;;;;;5053356;28;20233;-87
2021/11/28 00:13:54;;;;;;;3.80;2.87;;;3.40;93.00;;;;;;5063594;28;20197;-86
2021/11/28 00:16:21;;;;;;;2.63;2.43;;;3.40;93.00;;;;;;5069271;28;20216;-87
2021/11/28 00:18:48;;;;;;;4.63;2.70;;;3.50;92.80;;;;;;5072697;28;20201;-86
2021/11/28 00:21:16;;;;;;;3.23;2.60;;;3.50;92.40;;;;;;5067107;28;20726;-86
2021/11/28 00:23:43;;;;;;;4.63;2.60;;;3.50;92.10;;;;;;5071849;28;20223;-86
2021/11/28 00:26:11;;;;;;;2.77;2.30;;;3.50;91.80;;;;;;5071302;28;20216;-87
2021/11/28 00:28:38;;;;;;;3.67;2.90;;;3.60;91.50;;;;;;5072930;28;20197;-87
2021/11/28 00:31:06;;;;;;;5.20;3.27;;;3.50;92.00;;;;;;5065610;28;20229;-87
2021/11/28 00:33:33;;;;;;;3.43;3.07;;;3.60;91.70;;;;;;5069359;28;20206;-86
2021/11/28 00:36:00;;;;;;;5.77;3.60;;;3.50;91.60;;;;;;5065094;28;20236;-87
2021/11/28 00:38:29;;;;;;;4.33;3.17;;;3.60;91.80;;;;;;5065707;28;20204;-87
2021/11/28 00:40:57;;;;;;;3.50;2.93;;;3.60;91.90;;;;;;5068476;28;20230;-89
2021/11/28 00:43:26;;;;;;;3.60;2.77;;;3.50;92.00;;;;;;5063881;28;20218;-86
2021/11/28 00:45:53;;;;;;;4.23;3.00;;;3.50;92.10;;;;;;5073711;28;20263;-86
2021/11/28 00:48:23;;;;;;;4.07;3.10;;;3.50;91.80;;;;;;5061596;28;20202;-87
2021/11/28 00:51:00;;;;;;;3.67;2.70;;;3.40;92.00;;;;;;5067603;28;20687;-87
2021/11/28 00:53:28;;;;;;;4.20;2.60;;;3.40;92.10;;;;;;5065113;28;20212;-87
2021/11/28 00:55:55;;;;;;;4.80;3.27;;;3.40;92.10;;;;;;5060743;28;20256;-86
2021/11/28 00:58:23;;;;;;;4.67;3.20;;;3.40;92.30;;;;;;5069236;28;20199;-88
2021/11/28 01:00:50;;;;;;;3.90;3.10;;;3.40;92.50;;;;;;5056159;28;20249;-90
2021/11/28 01:03:17;;;;;;;3.17;2.83;;;3.30;92.70;;;;;;5067715;28;20298;-87
2021/11/28 01:05:44;;;;;;;4.23;3.17;;;3.30;92.90;;;;;;5057105;28;20296;-86
2021/11/28 01:08:11;;;;;;;3.70;2.90;;;3.30;93.00;;;;;;5068183;28;20205;-87
2021/11/28 01:10:39;;;;;;;3.90;2.90;;;3.30;93.10;;;;;;5059869;28;20194;-87
2021/11/28 01:13:06;;;;;;;2.90;2.60;;;3.30;93.10;;;;;;5078803;28;20204;-88
2021/11/28 01:15:33;;;;;;;4.60;3.23;;;3.20;93.00;;;;;;5062264;28;20204;-87
2021/11/28 01:18:00;;;;;;;2.40;2.20;;;3.00;93.20;;;;;;5060457;28;20193;-87
2021/11/28 01:20:27;;;;;;;3.03;2.33;;;3.00;93.40;;;;;;5057065;28;20649;-86
2021/11/28 01:22:54;;;;;;;3.60;2.50;;;2.90;93.60;;;;;;5078861;28;20283;-86
2021/11/28 01:25:21;;;;;;;3.80;2.30;;;2.90;94.00;;;;;;5083971;28;20228;-86
2021/11/28 01:27:50;;;;;;;2.50;2.27;;;3.00;93.80;;;;;;5071182;28;20724;-85
2021/11/28 01:30:17;;;;;;;3.57;2.30;;;3.00;93.60;;;;;;5064488;28;20194;-86
2021/11/28 01:32:45;;;;;;;2.20;2.00;;;3.00;93.90;;;;;;5078895;28;20251;-85
2021/11/28 01:35:14;;;;;;;4.20;2.50;;;3.10;93.60;;;;;;5090146;28;20194;-87
2021/11/28 01:37:41;;;;;;;2.77;1.93;;;3.10;93.10;;;;;;5071747;28;20239;-88
2021/11/28 01:40:13;;;;;;;2.37;2.00;;;3.10;93.20;;;;;;5064097;28;20198;-86
2021/11/28 01:42:41;;;;;;;3.00;1.97;;;3.20;93.10;;;;;;5057646;28;20228;-87
2021/11/28 01:45:13;;;;;;;2.27;2.00;;;3.30;92.80;;;;;;5068387;28;20225;-87
2021/11/28 01:47:40;;;;;;;3.10;2.00;;;3.10;92.90;;;;;;5074045;28;20213;-86
2021/11/28 01:50:08;;;;;;;3.53;2.13;;;3.10;93.30;;;;;;5059814;28;20556;-87
2021/11/28 01:52:36;;;;;;;2.17;1.63;;;3.10;93.40;;;;;;5062337;28;20228;-86
2021/11/28 01:55:13;;;;;;;1.73;1.60;;;3.10;93.20;;;;;;5071020;28;20201;-86
2021/11/28 01:57:40;;;;;;;1.60;1.50;;;3.00;92.90;;;;;;5068910;28;20224;-86
2021/11/28 02:00:12;;;;;;;1.70;1.60;;;2.90;93.30;;;;;;5071011;28;20660;-86
2021/11/28 02:02:39;;;;;;;2.13;1.67;;;3.00;93.30;;;;;;5073135;28;20315;-88
2021/11/28 02:05:07;;;;;;;3.23;1.70;;;2.90;93.10;;;;;;5057886;28;20229;-87
2021/11/28 02:07:34;;;;;;;3.00;1.80;;;2.90;93.40;;;;;;5059721;28;20224;-86
2021/11/28 02:10:02;;;;;;;1.90;1.53;;;2.90;93.80;;;;;;5054918;28;20202;-89
2021/11/28 02:12:30;;;;;;;2.20;1.57;;;2.90;93.90;;;;;;5067498;28;20237;-91
2021/11/28 02:14:58;;;;;;;1.90;1.60;;;2.90;93.90;;;;;;5063630;28;20558;-85
2021/11/28 02:17:27;;;;;;;3.23;2.10;;;2.90;94.00;;;;;;5055502;28;20586;-87
2021/11/28 02:19:54;;;;;;;1.80;1.50;;;2.80;94.10;;;;;;5071945;28;20197;-87
2021/11/28 02:22:23;;;;;;;2.83;1.80;;;2.80;94.20;;;;;;5061755;28;20221;-87
2021/11/28 02:24:50;;;;;;;3.30;1.80;;;2.80;94.60;;;;;;5059894;28;20635;-87
2021/11/28 02:27:17;;;;;;;2.87;1.80;;;2.80;94.60;;;;;;5054708;28;20684;-87
2021/11/28 02:29:45;;;;;;;3.63;1.97;;;2.80;94.90;;;;;;5060568;28;20574;-88
2021/11/28 02:32:13;;;;;;;2.60;1.90;;;2.80;94.60;;;;;;5059236;28;20224;-87
2021/11/28 02:34:40;;;;;;;1.70;1.60;;;2.90;94.60;;;;;;5061295;28;20205;-87
2021/11/28 02:37:08;;;;;;;2.00;1.80;;;2.80;94.60;;;;;;5066127;28;20223;-87
2021/11/28 02:39:37;;;;;;;3.83;1.80;;;2.90;94.60;;;;;;5055583;28;20196;-87
2021/11/28 02:42:05;;;;;;;2.63;1.67;;;2.90;94.30;;;;;;5052231;28;20228;-86
2021/11/28 02:44:32;;;;;;;2.47;1.90;;;3.00;94.60;;;;;;5061091;28;20224;-89
2021/11/28 02:47:00;;;;;;;2.83;1.90;;;3.00;94.60;;;;;;5068290;28;20221;-88
2021/11/28 02:49:28;;;;;;;2.53;1.77;;;2.90;94.00;;;;;;5060498;28;20200;-87
2021/11/28 02:51:55;;;;;;;2.90;1.87;;;2.80;94.40;;;;;;5061839;28;20221;-88
2021/11/28 02:54:22;;;;;;;2.30;2.03;;;2.70;94.60;;;;;;5061803;28;20217;-87
2021/11/28 02:56:51;;;;;;;3.07;1.90;;;2.60;94.60;;;;;;5061724;28;20225;-86
2021/11/28 02:59:18;;;;;;;2.37;1.90;;;2.70;95.10;;;;;;5064672;28;20194;-87
2021/11/28 03:01:45;;;;;;;2.50;1.93;;;2.80;95.10;;;;;;5065010;28;20229;-87
2021/11/28 03:04:12;;;;;;;4.27;1.97;;;2.90;94.60;;;;;;5062076;28;20194;-88
2021/11/28 03:06:41;;;;;;;2.80;1.83;;;3.00;94.60;;;;;;5066085;28;20226;-86
2021/11/28 03:09:08;;;;;;;2.53;1.90;;;3.00;94.20;;;;;;5053521;28;20198;-87
2021/11/28 03:11:35;;;;;;;2.67;1.80;;;3.10;94.20;;;;;;5060227;28;20225;-92
2021/11/28 03:14:04;;;;;;;2.30;2.00;;;3.10;93.90;;;;;;5064040;28;20204;-87
2021/11/28 03:16:31;;;;;;;2.27;1.73;;;3.10;93.80;;;;;;5061436;28;20224;-87
2021/11/28 03:18:58;;;;;;;4.37;2.00;;;3.10;93.90;;;;;;5055030;28;20224;-87
2021/11/28 03:21:27;;;;;;;2.60;2.10;;;3.00;93.90;;;;;;5065661;28;20221;-87
2021/11/28 03:23:56;;;;;;;2.37;1.90;;;2.80;94.00;;;;;;5060823;28;20569;-87
2021/11/28 03:26:27;;;;;;;4.67;2.00;;;2.70;94.60;;;;;;5067084;28;20224;-87
2021/11/28 03:28:58;;;;;;;2.97;2.20;;;2.60;94.60;;;;;;5067878;28;20208;-87
2021/11/28 03:31:28;;;;;;;2.83;2.00;;;2.60;94.90;;;;;;5059713;28;20220;-87
2021/11/28 03:33:56;;;;;;;2.67;1.90;;;2.70;94.60;;;;;;5054649;28;20202;-88
2021/11/28 03:36:25;;;;;;;2.90;1.90;;;2.60;94.60;;;;;;5062535;28;20236;-88
2021/11/28 03:38:52;;;;;;;2.77;1.97;;;2.60;94.60;;;;;;5071080;28;20201;-88
2021/11/28 03:41:22;;;;;;;2.27;1.80;;;2.60;94.90;;;;;;5069066;28;20233;-87
2021/11/28 03:43:50;;;;;;;2.37;1.80;;;2.50;94.60;;;;;;5071113;28;20229;-87
2021/11/28 03:46:17;;;;;;;2.73;1.90;;;2.40;95.00;;;;;;5071180;28;20228;-87
2021/11/28 03:48:46;;;;;;;4.10;1.70;;;2.60;95.10;;;;;;5058635;28;20194;-87
2021/11/28 03:51:13;;;;;;;3.07;1.93;;;2.70;94.60;;;;;;5060087;28;20221;-89
2021/11/28 03:53:40;;;;;;;1.93;1.73;;;2.80;94.60;;;;;;5071698;28;20360;-85
2021/11/28 03:56:09;;;;;;;2.40;1.73;;;2.60;94.60;;;;;;5074719;28;20217;-86
2021/11/28 03:58:37;;;;;;;2.77;1.90;;;2.60;94.60;;;;;;5084155;28;20210;-89
2021/11/28 04:01:06;;;;;;;4.70;2.03;;;2.60;94.70;;;;;;5079029;28;20230;-87
2021/11/28 04:03:33;;;;;;;2.07;1.83;;;2.70;94.70;;;;;;5064114;28;20208;-88
2021/11/28 04:06:02;;;;;;;2.93;2.10;;;2.90;94.60;;;;;;5062459;28;20247;-87
2021/11/28 04:08:29;;;;;;;3.13;1.90;;;2.90;94.60;;;;;;5065096;28;20198;-85
2021/11/28 04:10:57;;;;;;;3.93;2.17;;;2.80;94.60;;;;;;5060068;28;20312;-87
2021/11/28 04:13:24;;;;;;;2.60;2.00;;;2.80;94.60;;;;;;5064421;28;20197;-86
2021/11/28 04:15:51;;;;;;;2.13;1.93;;;2.70;94.60;;;;;;5062822;28;20259;-87
2021/11/28 04:18:18;;;;;;;2.80;1.87;;;2.70;94.60;;;;;;5060334;28;20194;-86
2021/11/28 04:20:45;;;;;;;4.87;2.20;;;2.80;94.60;;;;;;5062392;28;20204;-87
2021/11/28 04:23:13;;;;;;;3.93;1.87;;;2.80;94.60;;;;;;5063805;28;20220;-87
2021/11/28 04:25:41;;;;;;;2.43;2.10;;;2.80;94.40;;;;;;5059638;28;20213;-86
2021/11/28 04:28:08;;;;;;;3.03;1.87;;;2.80;94.20;;;;;;5064932;28;20209;-88
2021/11/28 04:30:36;;;;;;;3.63;2.20;;;2.80;94.30;;;;;;5062812;28;20201;-90
2021/11/28 04:33:04;;;;;;;2.07;1.87;;;2.70;94.60;;;;;;5065064;28;20209;-87
2021/11/28 04:35:31;;;;;;;2.90;2.00;;;2.80;94.90;;;;;;5069946;28;20709;-87
2021/11/28 04:37:58;;;;;;;2.17;1.97;;;2.80;94.60;;;;;;5066073;28;20206;-88
2021/11/28 04:40:27;;;;;;;2.10;1.90;;;2.80;94.60;;;;;;5068966;28;20197;-86
2021/11/28 04:42:53;;;;;;;2.73;1.93;;;2.80;94.30;;;;;;5067842;28;20240;-85
2021/11/28 04:45:20;;;;;;;3.17;1.90;;;2.80;94.50;;;;;;5074968;28;20217;-87
2021/11/28 04:47:47;;;;;;;2.20;1.80;;;2.90;94.20;;;;;;5067078;28;20736;-87
2021/11/28 04:50:15;;;;;;;2.50;1.97;;;2.80;94.20;;;;;;5071960;28;20216;-88
2021/11/28 04:52:43;;;;;;;1.93;1.73;;;2.80;94.30;;;;;;5074443;28;20229;-92
2021/11/28 04:55:11;;;;;;;2.60;1.80;;;2.80;94.60;;;;;;5073584;28;20217;-88
2021/11/28 04:57:39;;;;;;;2.00;1.73;;;2.80;94.60;;;;;;5053914;28;20217;-87
2021/11/28 05:00:10;;;;;;;2.47;2.13;;;2.90;94.40;;;;;;5060920;28;20212;-88
2021/11/28 05:02:38;;;;;;;2.53;2.10;;;2.90;94.00;;;;;;5066776;28;20233;-86
2021/11/28 05:05:06;;;;;;;2.40;2.20;;;2.90;94.00;;;;;;5061775;28;20217;-88
2021/11/28 05:07:33;;;;;;;2.03;1.83;;;2.80;94.10;;;;;;5062267;28;20248;-87
2021/11/28 05:09:59;;;;;;;2.90;2.23;;;2.80;94.20;;;;;;5057561;28;20202;-89
2021/11/28 05:12:27;;;;;;;3.40;2.00;;;2.90;94.30;;;;;;5058218;28;20241;-88
2021/11/28 05:14:55;;;;;;;2.40;1.80;;;2.90;94.30;;;;;;5061952;28;20653;-88
2021/11/28 05:17:23;;;;;;;2.70;2.13;;;2.80;94.50;;;;;;5066096;28;20225;-88
2021/11/28 05:19:51;;;;;;;2.20;1.73;;;2.90;94.60;;;;;;5061434;28;20229;-87
2021/11/28 05:22:18;;;;;;;2.67;2.20;;;2.90;94.60;;;;;;5057964;28;20307;-88
2021/11/28 05:24:47;;;;;;;4.13;2.20;;;2.90;94.60;;;;;;5065688;28;20208;-88
2021/11/28 05:27:15;;;;;;;4.50;1.80;;;2.90;94.60;;;;;;5051280;28;20226;-87
2021/11/28 05:29:42;;;;;;;2.67;2.00;;;3.00;94.30;;;;;;5061198;28;20203;-87
2021/11/28 05:32:11;;;;;;;2.10;1.90;;;3.00;93.80;;;;;;5063555;28;20214;-89
2021/11/28 05:34:38;;;;;;;2.10;1.90;;;3.00;93.70;;;;;;5060045;28;20696;-88
2021/11/28 05:37:06;;;;;;;3.00;2.20;;;3.00;94.00;;;;;;5053814;28;20225;-88
2021/11/28 05:39:33;;;;;;;3.60;2.33;;;3.00;93.90;;;;;;5067217;28;20198;-89
2021/11/28 05:42:00;;;;;;;2.50;2.30;;;3.10;93.90;;;;;;5070301;28;20299;-87
2021/11/28 05:44:28;;;;;;;2.80;2.10;;;3.00;94.10;;;;;;5066153;28;20602;-87
2021/11/28 05:46:55;;;;;;;2.70;2.30;;;3.00;94.50;;;;;;5067574;28;20229;-87
2021/11/28 05:49:23;;;;;;;3.83;2.80;;;3.00;94.00;;;;;;5064962;28;20203;-87
2021/11/28 05:51:50;;;;;;;2.73;2.30;;;3.10;93.90;;;;;;5063548;28;20304;-87
2021/11/28 05:54:17;;;;;;;3.10;2.50;;;3.00;94.20;;;;;;5065475;28;20201;-88
2021/11/28 05:56:45;;;;;;;2.40;2.20;;;2.90;94.60;;;;;;5061144;28;20226;-88
2021/11/28 05:59:12;;;;;;;2.80;2.30;;;2.90;94.60;;;;;;5060625;28;20558;-87
2021/11/28 06:01:39;;;;;;;2.20;2.00;;;2.90;94.60;;;;;;5058372;28;20699;-87
2021/11/28 06:04:06;;;;;;;2.10;1.93;;;2.90;94.30;;;;;;5064442;28;20205;-88
2021/11/28 06:06:34;;;;;;;2.87;2.00;;;2.80;94.60;;;;;;5058980;28;20226;-87
2021/11/28 06:09:01;;;;;;;2.47;2.27;;;2.80;94.60;;;;;;5059739;28;20569;-87
2021/11/28 06:11:28;;;;;;;2.13;1.93;;;2.80;94.60;;;;;;5059517;28;20218;-87
2021/11/28 06:13:55;;;;;;;3.23;2.10;;;2.70;94.60;;;;;;5063615;28;20464;-87
2021/11/28 06:16:23;;;;;;;2.77;2.10;;;2.60;94.60;;;;;;5058836;28;20564;-86
2021/11/28 06:18:50;;;;;;;1.87;1.77;;;2.70;94.60;;;;;;5076226;28;20197;-87
2021/11/28 06:21:17;;;;;;;2.87;2.50;;;2.80;94.60;;;;;;5074561;28;20229;-90
2021/11/28 06:23:45;;;;;;;2.80;2.03;;;2.80;94.60;;;;;;5071256;28;20203;-87
2021/11/28 06:26:12;;;;;;;3.57;2.13;;;2.80;94.60;;;;;;5057942;28;20677;-88
2021/11/28 06:28:39;;;;;;;2.10;1.90;;;2.90;94.60;;;;;;5058536;28;20200;-87
2021/11/28 06:31:06;;;;;;;3.30;2.23;;;2.80;94.60;;;;;;5061073;28;20228;-87
2021/11/28 06:33:34;;;;;;;2.20;1.90;;;2.80;94.60;;;;;;5061488;28;20201;-87
2021/11/28 06:36:01;;;;;;;2.30;2.10;;;2.80;94.60;;;;;;5059647;28;20233;-88
2021/11/28 06:38:28;;;;;;;2.87;2.23;;;2.90;94.60;;;;;;5062130;28;20206;-88
2021/11/28 06:40:56;;;;;;;3.30;2.20;;;2.80;94.60;;;;;;5060887;28;20236;-87
2021/11/28 06:43:23;;;;;;;3.23;2.17;;;2.70;94.60;;;;;;5066627;28;20213;-90
2021/11/28 06:45:50;;;;;;;2.50;2.30;;;2.70;94.80;;;;;;5066073;28;20245;-88
2021/11/28 06:48:17;;;;;;;2.80;2.20;;;2.70;95.00;;;;;;5065636;28;20189;-87
2021/11/28 06:50:44;;;;;;;2.50;2.30;;;2.70;95.10;;;;;;5073164;28;20220;-87
2021/11/28 06:53:11;;;;;;;2.87;2.27;;;2.80;95.00;;;;;;5065535;28;20194;-88
2021/11/28 06:55:45;;;;;;;3.33;2.60;;;2.80;94.60;;;;;;5063761;28;20212;-87
2021/11/28 06:58:15;;;;;;;4.00;2.10;;;2.90;94.60;;;;;;5069026;28;20189;-87
2021/11/28 07:00:42;;;;;;;3.87;2.70;;;2.90;94.60;;;;;;5065747;28;20201;-88
2021/11/28 07:03:09;;;;;;;3.37;2.47;;;2.90;94.60;;;;;;5065292;28;20276;-87
2021/11/28 07:05:36;;;;;;;3.33;2.37;;;3.00;94.70;;;;;;5069039;28;20213;-88
2021/11/28 07:08:04;;;;;;;2.30;2.10;;;3.10;94.20;;;;;;5062921;28;20200;-88
2021/11/28 07:10:31;;;;;;;3.20;2.67;;;3.10;94.10;;;;;;5059052;28;20637;-89
2021/11/28 07:12:58;;;;;;;2.93;2.10;;;3.10;93.80;;;;;;5078793;28;20196;-86
2021/11/28 07:15:27;;;;;;;2.90;2.30;;;3.10;94.40;;;;;;5061232;28;20200;-87
2021/11/28 07:17:54;;;;;;;2.47;2.27;;;3.10;94.10;;;;;;5060560;28;20260;-86
2021/11/28 07:20:21;;;;;;;2.60;2.20;;;3.10;93.80;;;;;;5058809;28;20204;-86
2021/11/28 07:22:48;;;;;;;3.30;2.03;;;2.90;93.90;;;;;;5061979;28;20217;-87
2021/11/28 07:25:15;;;;;;;4.30;2.10;;;2.90;94.40;;;;;;5059489;28;20661;-85
2021/11/28 07:27:47;;;;;;;4.00;2.80;;;3.00;94.20;;;;;;5060726;28;20320;-87
2021/11/28 07:30:14;;;;;;;3.20;2.20;;;3.00;93.90;;;;;;5055557;28;20208;-85
2021/11/28 07:32:42;;;;;;;3.77;2.53;;;3.00;94.00;;;;;;5063603;28;20232;-87
2021/11/28 07:35:10;;;;;;;2.90;2.57;;;3.00;94.30;;;;;;5058406;28;20197;-89
2021/11/28 07:37:37;;;;;;;3.00;2.30;;;3.10;94.20;;;;;;5044511;28;20217;-87
2021/11/28 07:40:11;;;;;;;2.87;2.57;;;3.00;94.10;;;;;;5062505;28;20566;-87
2021/11/28 07:42:38;;;;;;;3.90;2.47;;;2.90;94.10;;;;;;5064507;28;20559;-88
2021/11/28 07:45:07;;;;;;;4.40;2.97;;;2.90;94.60;;;;;;5058382;28;20221;-88
2021/11/28 07:47:34;;;;;;;2.97;2.20;;;3.10;94.40;;;;;;5071576;28;20225;-87
2021/11/28 07:50:03;;;;;;;3.43;2.40;;;3.20;94.20;;;;;;5060818;28;20682;-87
2021/11/28 07:52:30;;;;;;;4.13;2.70;;;3.30;93.60;;;;;;5061159;28;20222;-87
2021/11/28 07:54:59;;;;;;;4.93;2.60;;;3.20;93.70;;;;;;5056820;28;20206;-86
2021/11/28 07:57:26;;;;;;;2.93;2.37;;;3.00;94.20;;;;;;5076463;28;20216;-88
2021/11/28 07:59:53;;;;;;;3.10;2.80;;;3.10;94.70;;;;;;5070370;28;20212;-87
2021/11/28 08:02:20;;;;;;;2.77;2.47;;;3.20;94.20;;;;;;5055041;28;20226;-87
2021/11/28 08:04:49;;;;;;;2.83;2.37;;;3.40;93.50;;;;;;5074872;28;20220;-86
2021/11/28 08:07:17;;;;;;;2.40;2.10;;;3.50;93.20;;;;;;5066665;28;20221;-87
2021/11/28 08:09:44;;;;;;;3.00;2.30;;;3.60;92.70;;;;;;5062348;28;20194;-88
2021/11/28 08:12:12;;;;;;;2.37;2.17;;;3.70;92.50;;;;;;5058220;28;20228;-87
2021/11/28 08:14:39;;;;;;;2.67;2.20;;;3.80;92.10;;;;;;5068570;28;20193;-87
2021/11/28 08:17:08;;;;;;;2.87;2.00;;;3.80;92.10;;;;;;5068568;28;20220;-87
2021/11/28 08:19:35;;;;;;;2.73;2.10;;;3.90;91.80;;;;;;5070952;28;20193;-87
2021/11/28 08:22:02;;;;;;;2.80;2.17;;;4.00;91.70;;;;;;5060973;28;20229;-85
2021/11/28 08:24:30;;;;;;;2.77;2.50;;;4.00;91.60;;;;;;5061295;28;20205;-86
2021/11/28 08:26:57;;;;;;;3.57;2.37;;;3.90;92.10;;;;;;5072343;28;20281;-88
2021/11/28 08:29:25;;;;;;;3.53;2.40;;;3.90;92.20;;;;;;5071286;28;20275;-85
2021/11/28 08:31:52;;;;;;;2.53;2.33;;;3.80;92.50;;;;;;5069709;28;20224;-87
2021/11/28 08:34:20;;;;;;;2.70;2.20;;;4.00;92.20;;;;;;5061121;28;20198;-86
2021/11/28 08:36:50;;;;;;;2.50;2.30;;;4.20;91.90;;;;;;5062550;28;20218;-89
2021/11/28 08:39:17;;;;;;;2.30;2.10;;;4.30;91.40;;;;;;5066691;28;20312;-88
2021/11/28 08:41:45;;;;;;;2.27;2.07;;;4.50;91.40;;;;;;5066297;28;20230;-88
2021/11/28 08:44:14;;;;;;;2.73;2.10;;;4.60;90.50;;;;;;5061250;28;20236;-89
2021/11/28 08:46:41;;;;;;;3.30;2.00;;;4.70;90.20;;;;;;5068968;28;20229;-87
2021/11/28 08:49:08;;;;;;;4.43;2.10;;;4.50;90.10;;;;;;5071095;28;20194;-85
2021/11/28 08:51:36;;;;;;;4.70;2.50;;;4.80;89.10;;;;;;5076232;28;20221;-85
2021/11/28 08:54:03;;;;;;;2.93;2.00;;;4.90;88.90;;;;;;5071195;28;20205;-88
2021/11/28 08:56:30;;;;;;;2.10;1.90;;;5.00;87.60;;;;;;5062143;28;20225;-88
2021/11/28 08:58:58;;;;;;;2.80;1.97;;;5.10;86.80;;;;;;5058133;28;20207;-87
2021/11/28 09:01:25;;;;;;;3.57;2.10;;;5.10;86.80;;;;;;5065559;28;20240;-85
2021/11/28 09:03:52;;;;;;;2.67;1.80;;;4.80;87.60;;;;;;5062849;28;20872;-85
2021/11/28 09:06:19;;;;;;;3.33;1.50;;;4.70;88.80;;;;;;5068866;28;20227;-88
2021/11/28 09:08:46;;;;;;;1.70;1.60;;;4.60;88.70;;;;;;5066763;28;20221;-85
2021/11/28 09:11:15;;;;;;;1.83;1.63;;;4.60;88.70;;;;;;5068078;28;20217;-87
2021/11/28 09:13:42;;;;;;;2.13;1.57;;;4.50;89.80;;;;;;5066233;28;20209;-84
2021/11/28 09:16:11;;;;;;;1.83;1.40;;;4.70;88.80;;;;;;5057305;28;20221;-85
2021/11/28 09:18:41;;;;;;;1.43;1.20;;;4.60;88.70;;;;;;5055579;28;20290;-85
2021/11/28 09:21:08;;;;;;;1.87;1.40;;;4.60;87.50;;;;;;5055706;28;20241;-84
2021/11/28 09:26:20;;;;;;;1.87;1.40;;;4.30;90.30;;;;;;5068332;28;20706;-87
2021/11/28 09:28:47;;;;;;;2.07;1.53;;;4.40;90.20;;;;;;5062660;28;20284;-82
2021/11/28 09:31:15;;;;;;;3.93;1.83;;;4.40;89.80;;;;;;5064005;28;20230;-82
2021/11/28 09:33:42;;;;;;;2.33;1.70;;;4.50;90.00;;;;;;5073214;28;20284;-85
2021/11/28 09:36:20;;;;;;;2.30;1.57;;;4.70;90.30;;;;;;5070485;28;20267;-88
2021/11/28 09:38:47;;;;;;;3.03;1.87;;;5.00;89.00;;;;;;5068871;28;20193;-89
2021/11/28 09:41:16;;;;;;;1.83;1.23;;;5.10;89.00;;;;;;5064518;28;20234;-89
2021/11/28 09:46:13;;;;;;;1.63;1.10;;;5.00;85.50;;;;;;5072532;28;20640;-88
2021/11/28 09:52:28;;;;;;;1.93;1.40;;;5.00;85.50;;;;;;5071992;28;20255;-86
2021/11/28 09:55:28;;;;;;;2.03;1.40;;;4.70;86.40;;;;;;5056992;28;20268;-85
2021/11/28 09:57:57;;;;;;;4.37;1.90;;;4.80;86.40;;;;;;5054287;28;20225;-86
2021/11/28 10:00:28;;;;;;;2.20;1.50;;;4.60;87.10;;;;;;5054873;28;20551;-88
2021/11/28 10:02:55;;;;;;;1.83;1.53;;;4.50;88.30;;;;;;5054213;28;20297;-86
2021/11/28 10:05:22;;;;;;;2.10;1.70;;;4.50;88.70;;;;;;5055669;28;20190;-87
2021/11/28 10:07:53;;;;;;;3.37;1.70;;;4.60;89.10;;;;;;5085257;28;20246;-87
2021/11/28 10:10:21;;;;;;;2.10;1.70;;;4.60;90.20;;;;;;5074680;28;20185;-86
2021/11/28 10:12:55;;;;;;;3.60;1.90;;;4.50;90.30;;;;;;5072476;28;20859;-90
2021/11/28 10:15:25;;;;;;;2.33;1.80;;;4.50;90.20;;;;;;5064595;28;20292;-92
2021/11/28 10:17:52;;;;;;;2.20;1.70;;;4.50;88.70;;;;;;5063027;28;20232;-87
2021/11/28 10:20:21;;;;;;;4.10;1.90;;;4.50;88.70;;;;;;5068123;28;20576;-87
2021/11/28 10:22:49;;;;;;;4.13;2.00;;;4.50;88.70;;;;;;5065277;28;20640;-87
2021/11/28 10:25:24;;;;;;;3.83;1.90;;;4.40;90.00;;;;;;5068893;28;20238;-89
2021/11/28 10:27:54;;;;;;;2.17;1.53;;;4.30;90.60;;;;;;5065978;28;20221;-88
2021/11/28 10:30:36;;;;;;;3.17;1.40;;;4.30;90.60;;;;;;5067882;28;20219;-87
2021/11/28 10:33:09;;;;;;;3.10;1.77;;;4.30;90.60;;;;;;5071530;28;20208;-88
2021/11/28 10:35:36;;;;;;;1.87;1.70;;;4.30;90.90;;;;;;5070292;28;20208;-86
2021/11/28 10:38:13;;;;;;;4.37;1.83;;;4.40;90.70;;;;;;5071496;28;20208;-89
2021/11/28 10:40:46;;;;;;;3.13;2.20;;;4.40;90.90;;;;;;5069702;28;20190;-91
2021/11/28 10:43:15;;;;;;;2.17;1.60;;;4.40;90.90;;;;;;5065628;28;20218;-87
2021/11/28 10:45:47;;;;;;;2.63;1.90;;;4.30;90.30;;;;;;5064354;28;20202;-86
2021/11/28 10:48:16;;;;;;;2.30;1.70;;;4.40;90.80;;;;;;5068155;28;20244;-84
2021/11/28 10:50:43;;;;;;;2.37;1.93;;;4.40;90.70;;;;;;5071185;28;20196;-85
2021/11/28 10:53:11;;;;;;;5.10;1.70;;;4.20;90.60;;;;;;5076136;28;20656;-86
2021/11/28 10:55:42;;;;;;;2.57;1.50;;;4.30;90.80;;;;;;5062245;28;20204;-84
2021/11/28 10:58:13;;;;;;;3.00;1.60;;;4.60;90.90;;;;;;5063476;28;20712;-87
2021/11/28 11:01:01;;;;;;;1.30;1.20;;;4.80;90.30;;;;;;5062269;28;20618;-86
2021/11/28 11:03:36;;;;;;;4.23;1.43;;;5.00;89.00;;;;;;5059556;28;20204;-86
2021/11/28 11:06:18;;;;;;;1.60;1.50;;;5.00;88.40;;;;;;5064396;28;20190;-87
2021/11/28 11:08:46;;;;;;;1.90;1.30;;;5.20;86.80;;;;;;5077068;28;20653;-85
2021/11/28 11:11:16;;;;;;;3.10;1.50;;;5.40;85.50;;;;;;5066615;28;20628;-86
2021/11/28 11:13:55;;;;;;;1.80;1.33;;;5.40;84.00;;;;;;5068353;28;20197;-90
2021/11/28 11:16:36;;;;;;;1.93;1.53;;;5.30;85.20;;;;;;5065785;28;20201;-87
2021/11/28 11:19:28;;;;;;;1.93;1.33;;;5.20;86.10;;;;;;5066345;28;20199;-87
2021/11/28 11:22:04;;;;;;;3.67;1.60;;;5.10;85.80;;;;;;5070392;28;21273;-84
2021/11/28 11:24:32;;;;;;;1.90;1.57;;;4.90;87.50;;;;;;5069110;28;20201;-85
2021/11/28 11:27:09;;;;;;;3.70;1.70;;;4.90;88.90;;;;;;5068087;28;20217;-84
2021/11/28 11:29:36;;;;;;;2.70;1.67;;;4.90;88.90;;;;;;5075311;28;20201;-85
2021/11/28 11:32:09;;;;;;;2.27;1.50;;;4.80;88.90;;;;;;5078420;28;20193;-85
2021/11/28 11:34:50;;;;;;;1.97;1.77;;;4.70;90.20;;;;;;5078413;28;20189;-88
2021/11/28 11:37:18;;;;;;;3.10;1.70;;;4.80;90.00;;;;;;5065762;28;20224;-85
2021/11/28 11:39:47;;;;;;;4.10;1.97;;;4.70;89.60;;;;;;5061873;28;20193;-86
2021/11/28 11:42:17;;;;;;;2.23;1.80;;;4.80;90.30;;;;;;5065869;28;20240;-87
2021/11/28 11:44:46;;;;;;;1.93;1.60;;;4.40;89.40;;;;;;5065068;28;20229;-91
2021/11/28 11:47:13;;;;;;;1.70;1.60;;;4.30;90.60;;;;;;5061378;28;20226;-88
2021/11/28 11:49:43;;;;;;;2.53;1.80;;;4.00;91.30;;;;;;5072491;28;20193;-87
2021/11/28 11:52:10;;;;;;;2.67;2.00;;;3.80;91.60;;;;;;5072859;28;20233;-89
2021/11/28 11:54:45;;;;;;;2.63;1.87;;;3.80;92.10;;;;;;5072051;28;20632;-86
2021/11/28 11:57:17;;;;;;;2.10;1.90;;;3.70;92.30;;;;;;5073635;28;20256;-86
2021/11/28 12:00:08;;;;;;;2.60;2.33;;;3.50;92.70;;;;;;5069163;28;20280;-85
2021/11/28 12:02:37;;;;;;;1.93;1.73;;;3.40;93.50;;;;;;5058065;28;20711;-86
2021/11/28 12:05:37;;;;;;;2.17;1.87;;;3.50;93.60;;;;;;5075672;28;20203;-85
2021/11/28 12:08:08;;;;;;;2.63;2.03;;;3.30;93.80;;;;;;5094081;28;20214;-85
2021/11/28 12:10:38;;;;;;;2.50;2.30;;;3.30;94.00;;;;;;5065298;28;20204;-83
2021/11/28 12:13:07;;;;;;;2.90;2.40;;;3.40;94.40;;;;;;5073436;28;20285;-88
2021/11/28 12:15:36;;;;;;;3.87;2.30;;;3.60;94.00;;;;;;5067131;28;20281;-85
2021/11/28 12:18:05;;;;;;;3.20;2.33;;;3.60;93.70;;;;;;5074895;28;20208;-84
2021/11/28 12:20:57;;;;;;;4.40;2.57;;;3.70;93.20;;;;;;5066971;28;20290;-85
2021/11/28 12:23:54;;;;;;;2.77;2.23;;;3.80;92.90;;;;;;5064525;28;20539;-85
2021/11/28 12:26:56;;;;;;;3.30;2.40;;;3.80;92.70;;;;;;5064728;28;20248;-82
2021/11/28 12:29:42;;;;;;;4.23;2.47;;;3.90;92.60;;;;;;5069138;28;20197;-88
2021/11/28 12:32:25;;;;;;;4.63;2.83;;;4.00;92.30;;;;;;5067583;28;20659;-89
2021/11/28 12:34:57;;;;;;;4.27;2.50;;;4.00;92.20;;;;;;5071849;28;20257;-85
2021/11/28 12:37:27;;;;;;;5.10;2.33;;;4.00;92.20;;;;;;5070426;28;20224;-85
2021/11/28 12:39:57;;;;;;;4.17;2.27;;;4.10;92.20;;;;;;5071994;28;20208;-86
2021/11/28 12:42:28;;;;;;;3.57;2.33;;;4.00;91.60;;;;;;5071416;28;20224;-84
2021/11/28 12:45:04;;;;;;;3.63;2.47;;;3.90;91.90;;;;;;5070943;28;20228;-86
2021/11/28 12:47:32;;;;;;;5.20;2.60;;;3.90;92.30;;;;;;5069955;28;20216;-83
2021/11/28 12:50:02;;;;;;;3.90;2.63;;;4.00;92.20;;;;;;5064075;28;20218;-85
2021/11/28 12:52:34;;;;;;;3.73;2.60;;;3.90;92.20;;;;;;5066672;28;20255;-86
2021/11/28 12:55:12;;;;;;;2.93;2.30;;;3.70;92.30;;;;;;5071874;28;20276;-85
2021/11/28 12:57:42;;;;;;;4.87;2.57;;;3.60;93.10;;;;;;5072314;28;20228;-88
2021/11/28 13:00:17;;;;;;;3.13;2.33;;;3.80;92.50;;;;;;5065368;28;20187;-88
2021/11/28 13:02:49;;;;;;;3.00;2.20;;;3.90;91.70;;;;;;5069690;28;20326;-87
2021/11/28 13:05:38;;;;;;;4.03;2.30;;;4.00;91.80;;;;;;5066969;28;20221;-86
2021/11/28 13:08:36;;;;;;;2.77;2.47;;;4.20;91.50;;;;;;5068292;28;20214;-89
2021/11/28 13:11:13;;;;;;;4.43;3.10;;;4.10;90.90;;;;;;5084776;28;20214;-90
2021/11/28 13:13:44;;;;;;;5.40;3.00;;;4.20;90.90;;;;;;5069236;28;20202;-89
2021/11/28 13:16:17;;;;;;;3.37;2.77;;;4.20;91.10;;;;;;5064941;28;20249;-92
2021/11/28 13:18:48;;;;;;;4.73;3.40;;;4.30;90.90;;;;;;5070450;28;20245;-87